createdAt,value
2019-05-23T00:02:19.485Z,23.90
2019-05-23T00:04:51.690Z,23.40
2019-05-23T00:07:20.393Z,21.03
2019-05-23T00:09:49.481Z,23.70
2019-05-23T00:12:36.832Z,21.40
2019-05-23T00:15:13.874Z,22.53
2019-05-23T00:17:42.020Z,22.57
2019-05-23T00:20:09.517Z,20.67
2019-05-23T00:22:37.209Z,20.97
2019-05-23T00:25:05.197Z,20.40
2019-05-23T00:27:33.369Z,21.20
2019-05-23T00:30:02.380Z,20.60
2019-05-23T00:32:35.227Z,21.87
2019-05-23T00:35:03.730Z,23.30
2019-05-23T00:37:33.191Z,22.60
2019-05-23T00:40:00.254Z,23.87
2019-05-23T00:42:28.989Z,21.43
2019-05-23T00:44:56.713Z,20.67
2019-05-23T00:47:23.886Z,24.40
2019-05-23T00:49:51.145Z,22.23
2019-05-23T00:52:19.425Z,22.60
2019-05-23T00:54:46.678Z,22.97
2019-05-23T00:57:14.533Z,22.33
2019-05-23T00:59:41.965Z,22.73
2019-05-23T01:02:10.566Z,22.60
2019-05-23T01:04:39.551Z,22.07
2019-05-23T01:07:07.240Z,21.30
2019-05-23T01:09:35.712Z,23.57
2019-05-23T01:12:04.685Z,22.50
2019-05-23T01:14:31.774Z,21.80
2019-05-23T01:17:02.327Z,23.37
2019-05-23T01:19:29.491Z,25.03
2019-05-23T01:21:59.492Z,23.17
2019-05-23T01:24:37.937Z,23.13
2019-05-23T01:27:06.551Z,23.10
2019-05-23T01:29:38.906Z,21.43
2019-05-23T01:32:14.323Z,22.20
2019-05-23T01:34:42.819Z,22.80
2019-05-23T01:37:10.491Z,21.77
2019-05-23T01:39:37.585Z,21.93
2019-05-23T01:42:04.711Z,22.30
2019-05-23T01:44:32.057Z,22.40
2019-05-23T01:46:59.473Z,22.50
2019-05-23T01:49:26.573Z,23.57
2019-05-23T01:51:54.045Z,22.40
2019-05-23T01:54:21.405Z,22.70
2019-05-23T01:56:48.615Z,22.27
2019-05-23T01:59:15.904Z,21.73
2019-05-23T02:01:43.409Z,22.10
2019-05-23T02:04:10.785Z,22.23
2019-05-23T02:06:38.309Z,23.40
2019-05-23T02:09:08.037Z,24.03
2019-05-23T02:11:35.703Z,23.50
2019-05-23T02:14:03.522Z,21.57
2019-05-23T02:16:31.095Z,22.33
2019-05-23T02:18:58.396Z,20.37
2019-05-23T02:21:26.273Z,21.93
2019-05-23T02:23:53.862Z,22.27
2019-05-23T02:26:22.991Z,20.60
2019-05-23T02:28:50.209Z,23.60
2019-05-23T02:31:18.090Z,21.87
2019-05-23T02:33:45.285Z,21.83
2019-05-23T02:36:12.546Z,22.77
2019-05-23T02:38:58.180Z,21.13
2019-05-23T02:41:48.691Z,21.00
2019-05-23T02:44:20.089Z,22.17
2019-05-23T02:47:15.297Z,22.53
2019-05-23T02:49:42.387Z,21.33
2019-05-23T02:52:41.592Z,23.57
2019-05-23T02:55:16.667Z,22.53
2019-05-23T02:57:44.484Z,21.40
2019-05-23T03:00:54.755Z,22.63
2019-05-23T03:03:25.117Z,21.00
2019-05-23T03:05:52.444Z,21.40
2019-05-23T03:08:20.839Z,21.93
2019-05-23T03:10:52.036Z,21.80
2019-05-23T03:13:20.801Z,22.53
2019-05-23T03:15:48.293Z,19.37
2019-05-23T03:18:15.681Z,20.77
2019-05-23T03:20:42.745Z,19.97
2019-05-23T03:23:14.742Z,21.90
2019-05-23T03:26:20.892Z,23.93
2019-05-23T03:28:49.177Z,21.83
2019-05-23T03:31:29.999Z,21.53
2019-05-23T03:33:52.634Z,22.27
2019-05-23T03:36:19.735Z,19.53
2019-05-23T03:38:46.914Z,20.80
2019-05-23T03:41:13.990Z,21.57
2019-05-23T03:43:41.189Z,19.83
2019-05-23T03:46:10.252Z,22.30
2019-05-23T03:48:37.639Z,19.60
2019-05-23T03:51:05.617Z,20.87
2019-05-23T03:53:35.193Z,21.03
2019-05-23T03:56:03.373Z,20.97
2019-05-23T03:58:30.973Z,19.07
2019-05-23T04:01:00.943Z,21.20
2019-05-23T04:03:28.887Z,19.10
2019-05-23T04:05:56.181Z,18.30
2019-05-23T04:08:23.874Z,18.87
2019-05-23T04:10:52.250Z,21.43
2019-05-23T04:13:19.656Z,18.30
2019-05-23T04:15:47.322Z,21.50
2019-05-23T04:18:14.476Z,18.90
2019-05-23T04:20:41.662Z,19.90
2019-05-23T04:23:08.833Z,22.00
2019-05-23T04:25:35.921Z,21.00
2019-05-23T04:28:03.724Z,20.00
2019-05-23T04:30:30.785Z,19.60
2019-05-23T04:32:57.868Z,20.67
2019-05-23T04:35:25.303Z,25.93
2019-05-23T04:37:52.704Z,22.17
2019-05-23T04:40:19.879Z,20.43
2019-05-23T04:42:46.985Z,23.07
2019-05-23T04:45:14.151Z,21.13
2019-05-23T04:47:41.222Z,18.47
2019-05-23T04:50:11.511Z,19.30
2019-05-23T04:52:38.616Z,20.97
2019-05-23T04:55:09.529Z,19.93
2019-05-23T04:57:36.944Z,18.00
2019-05-23T05:00:04.506Z,18.50
2019-05-23T05:02:31.580Z,19.17
2019-05-23T05:07:38.079Z,13.13
2019-05-23T05:10:05.477Z,15.80
2019-05-23T05:12:33.536Z,15.70
2019-05-23T05:15:00.618Z,15.87
2019-05-23T05:17:27.774Z,14.37
2019-05-23T05:19:54.942Z,13.90
2019-05-23T05:22:22.203Z,15.33
2019-05-23T05:24:49.337Z,16.27
2019-05-23T05:29:55.664Z,14.60
2019-05-23T05:35:17.962Z,15.47
2019-05-23T05:37:45.132Z,14.30
2019-05-23T05:40:15.734Z,14.90
2019-05-23T05:42:45.362Z,11.30
2019-05-23T05:45:12.675Z,11.90
2019-05-23T05:47:40.263Z,11.17
2019-05-23T05:50:07.979Z,12.63
2019-05-23T05:52:35.089Z,12.17
2019-05-23T05:55:02.333Z,11.30
2019-05-23T05:57:29.384Z,11.93
2019-05-23T05:59:56.490Z,12.23
2019-05-23T06:02:24.972Z,12.40
2019-05-23T06:04:52.087Z,10.73
2019-05-23T06:07:33.849Z,11.20
2019-05-23T06:10:02.919Z,10.57
2019-05-23T06:12:29.982Z,11.07
2019-05-23T06:14:57.057Z,11.20
2019-05-23T06:17:24.354Z,12.37
2019-05-23T06:19:51.451Z,10.67
2019-05-23T06:22:19.342Z,10.03
2019-05-23T06:24:51.951Z,11.57
2019-05-23T06:27:17.442Z,9.90
2019-05-23T06:32:25.273Z,11.37
2019-05-23T06:34:54.479Z,8.50
2019-05-23T06:37:21.668Z,9.60
2019-05-23T06:39:48.959Z,9.10
2019-05-23T06:42:16.160Z,10.27
2019-05-23T06:44:43.453Z,10.50
2019-05-23T06:47:10.620Z,10.73
2019-05-23T06:49:37.994Z,10.63
2019-05-23T06:52:05.074Z,10.17
2019-05-23T06:54:32.145Z,10.87
2019-05-23T06:56:59.213Z,9.80
2019-05-23T06:59:26.334Z,10.47
2019-05-23T07:01:53.396Z,10.23
2019-05-23T07:04:21.275Z,9.30
2019-05-23T07:06:48.449Z,10.47
2019-05-23T07:09:16.680Z,10.67
2019-05-23T07:11:43.788Z,10.00
2019-05-23T07:14:11.053Z,9.20
2019-05-23T07:16:38.172Z,10.03
2019-05-23T07:19:05.242Z,7.90
2019-05-23T07:21:32.419Z,9.87
2019-05-23T07:23:59.526Z,9.30
2019-05-23T07:26:26.893Z,8.90
2019-05-23T07:28:54.106Z,10.10
2019-05-23T07:31:21.594Z,10.63
2019-05-23T07:34:01.278Z,10.20
2019-05-23T07:36:17.755Z,10.97
2019-05-23T07:38:44.866Z,11.13
2019-05-23T07:41:12.690Z,9.97
2019-05-23T07:43:39.854Z,8.50
2019-05-23T07:46:07.355Z,8.90
2019-05-23T07:48:35.362Z,10.87
2019-05-23T07:51:02.433Z,10.90
2019-05-23T07:53:48.027Z,11.07
2019-05-23T07:56:17.715Z,12.30
2019-05-23T07:58:44.995Z,10.73
2019-05-23T08:01:14.331Z,11.83
2019-05-23T08:03:41.869Z,10.87
2019-05-23T08:06:09.458Z,11.57
2019-05-23T08:08:36.621Z,10.57
2019-05-23T08:11:03.685Z,11.57
2019-05-23T08:13:31.297Z,9.80
2019-05-23T08:15:58.858Z,10.20
2019-05-23T08:18:26.195Z,11.00
2019-05-23T08:20:53.354Z,11.23
2019-05-23T08:23:20.833Z,11.70
2019-05-23T08:25:48.216Z,11.70
2019-05-23T08:28:15.495Z,9.60
2019-05-23T08:30:42.568Z,9.40
2019-05-23T08:33:10.663Z,8.47
2019-05-23T08:35:38.043Z,7.57
2019-05-23T08:38:05.887Z,8.20
2019-05-23T08:40:32.980Z,8.83
2019-05-23T08:43:00.554Z,7.87
2019-05-23T08:45:28.154Z,10.33
2019-05-23T08:47:55.217Z,8.70
2019-05-23T08:50:23.369Z,7.60
2019-05-23T08:52:50.450Z,9.03
2019-05-23T08:55:19.546Z,8.67
2019-05-23T08:57:46.868Z,8.87
2019-05-23T09:00:15.877Z,7.37
2019-05-23T09:02:43.290Z,6.80
2019-05-23T09:05:10.852Z,8.30
2019-05-23T09:07:37.935Z,7.17
2019-05-23T09:10:05.556Z,6.83
2019-05-23T09:12:33.027Z,8.43
2019-05-23T09:15:00.131Z,9.93
2019-05-23T09:17:27.318Z,10.07
2019-05-23T09:19:54.406Z,10.30
2019-05-23T09:22:21.611Z,10.73
2019-05-23T09:24:48.707Z,8.70
2019-05-23T09:27:15.805Z,9.43
2019-05-23T09:29:42.997Z,8.80
2019-05-23T09:32:10.154Z,10.33
2019-05-23T09:34:37.239Z,8.70
2019-05-23T09:37:04.446Z,8.47
2019-05-23T09:39:31.751Z,8.70
2019-05-23T09:41:58.824Z,9.70
2019-05-23T09:44:25.913Z,8.50
2019-05-23T09:46:53.028Z,7.13
2019-05-23T09:49:20.088Z,7.30
2019-05-23T09:51:48.505Z,7.23
2019-05-23T09:54:16.970Z,8.90
2019-05-23T09:56:44.279Z,7.60
2019-05-23T09:59:11.332Z,7.60
2019-05-23T10:01:38.515Z,7.57
2019-05-23T10:04:06.008Z,7.80
2019-05-23T10:06:33.124Z,8.20
2019-05-23T10:09:00.242Z,9.57
2019-05-23T10:11:27.280Z,8.50
2019-05-23T10:13:54.392Z,8.37
2019-05-23T10:16:21.502Z,7.47
2019-05-23T10:18:48.917Z,5.87
2019-05-23T10:21:16.008Z,5.80
2019-05-23T10:23:43.107Z,8.17
2019-05-23T10:26:10.405Z,6.60
2019-05-23T10:28:37.477Z,6.37
2019-05-23T10:31:06.318Z,8.57
2019-05-23T10:33:33.402Z,8.20
2019-05-23T10:36:01.357Z,8.13
2019-05-23T10:38:29.565Z,6.10
2019-05-23T10:40:57.400Z,6.20
2019-05-23T10:43:24.680Z,6.33
2019-05-23T10:45:51.865Z,7.30
2019-05-23T10:48:20.088Z,6.37
2019-05-23T10:50:47.448Z,5.40
2019-05-23T10:53:15.310Z,5.67
2019-05-23T10:55:42.737Z,5.10
2019-05-23T10:58:10.282Z,5.40
2019-05-23T11:00:39.304Z,5.90
2019-05-23T11:03:06.576Z,6.60
2019-05-23T11:05:33.654Z,5.30
2019-05-23T11:08:02.133Z,4.90
2019-05-23T11:10:29.889Z,5.80
2019-05-23T11:12:56.940Z,5.50
2019-05-23T11:15:24.002Z,4.83
2019-05-23T11:17:53.786Z,6.23
2019-05-23T11:20:20.595Z,5.33
2019-05-23T11:22:47.679Z,6.10
2019-05-23T11:25:16.933Z,6.43
2019-05-23T11:27:44.306Z,5.83
2019-05-23T11:30:14.489Z,6.00
2019-05-23T11:32:41.561Z,5.23
2019-05-23T11:35:08.660Z,4.77
2019-05-23T11:37:35.738Z,5.57
2019-05-23T11:40:03.021Z,5.03
2019-05-23T11:42:30.093Z,4.73
2019-05-23T11:44:57.184Z,5.27
2019-05-23T11:47:24.675Z,5.33
2019-05-23T11:49:51.758Z,7.90
2019-05-23T11:52:18.860Z,4.40
2019-05-23T11:54:46.036Z,5.07
2019-05-23T11:57:13.235Z,5.50
2019-05-23T11:59:40.833Z,5.20
2019-05-23T12:02:20.460Z,5.07
2019-05-23T12:04:47.609Z,6.10
2019-05-23T12:07:24.098Z,5.10
2019-05-23T12:09:51.219Z,4.50
2019-05-23T12:12:18.526Z,3.80
2019-05-23T12:14:45.597Z,5.70
2019-05-23T12:17:14.730Z,5.50
2019-05-23T12:19:42.363Z,5.40
2019-05-23T12:22:09.659Z,4.60
2019-05-23T12:24:36.770Z,5.60
2019-05-23T12:27:03.931Z,4.70
2019-05-23T12:29:31.029Z,5.13
2019-05-23T12:31:58.416Z,5.37
2019-05-23T12:34:25.509Z,5.23
2019-05-23T12:36:52.623Z,4.83
2019-05-23T12:39:19.693Z,4.73
2019-05-23T12:41:46.899Z,4.90
2019-05-23T12:44:17.288Z,4.53
2019-05-23T12:46:43.111Z,4.03
2019-05-23T12:49:19.959Z,5.27
2019-05-23T12:51:47.024Z,3.97
2019-05-23T12:54:14.125Z,4.60
2019-05-23T12:56:41.225Z,4.23
2019-05-23T12:59:08.901Z,6.93
2019-05-23T13:01:38.414Z,3.80
2019-05-23T13:04:09.966Z,3.97
2019-05-23T13:06:35.060Z,3.53
2019-05-23T13:09:02.238Z,4.00
2019-05-23T13:11:29.646Z,3.53
2019-05-23T13:13:56.727Z,4.30
2019-05-23T13:16:25.140Z,3.70
2019-05-23T13:18:52.232Z,3.83
2019-05-23T13:21:19.338Z,4.47
2019-05-23T13:23:46.642Z,4.03
2019-05-23T13:26:13.866Z,4.97
2019-05-23T13:28:40.965Z,3.97
2019-05-23T13:31:08.105Z,4.30
2019-05-23T13:33:35.391Z,4.50
2019-05-23T13:36:03.158Z,4.30
2019-05-23T13:38:30.262Z,3.80
2019-05-23T13:40:57.330Z,3.97
2019-05-23T13:43:25.743Z,3.30
2019-05-23T13:45:52.953Z,2.97
2019-05-23T13:48:20.152Z,4.67
2019-05-23T13:50:47.327Z,3.23
2019-05-23T13:53:14.431Z,3.43
2019-05-23T13:55:41.848Z,3.53
2019-05-23T13:58:08.952Z,3.50
2019-05-23T14:00:36.438Z,3.13
2019-05-23T14:03:04.250Z,3.50
2019-05-23T14:05:31.637Z,4.70
2019-05-23T14:08:11.441Z,3.53
2019-05-23T14:10:28.553Z,4.07
2019-05-23T14:12:55.693Z,3.80
2019-05-23T14:15:25.679Z,3.50
2019-05-23T14:17:52.819Z,3.40
2019-05-23T14:20:20.494Z,4.30
2019-05-23T14:22:55.976Z,3.77
2019-05-23T14:25:23.564Z,4.37
2019-05-23T14:28:02.191Z,4.90
2019-05-23T14:30:47.522Z,3.33
2019-05-23T14:33:33.181Z,4.03
2019-05-23T14:36:02.495Z,3.20
2019-05-23T14:38:31.946Z,3.83
2019-05-23T14:40:59.574Z,3.70
2019-05-23T14:43:27.089Z,3.73
2019-05-23T14:46:00.242Z,4.10
2019-05-23T14:48:56.024Z,4.13
2019-05-23T14:51:41.105Z,3.40
2019-05-23T14:54:15.897Z,3.37
2019-05-23T14:56:43.368Z,3.27
2019-05-23T14:59:10.774Z,3.67
2019-05-23T15:01:37.963Z,3.73
2019-05-23T15:04:05.363Z,2.87
2019-05-23T15:06:32.782Z,2.93
2019-05-23T15:08:59.881Z,3.27
2019-05-23T15:11:27.066Z,2.77
2019-05-23T15:13:54.368Z,3.70
2019-05-23T15:16:21.807Z,2.93
2019-05-23T15:18:49.020Z,3.70
2019-05-23T15:21:16.104Z,3.53
2019-05-23T15:23:43.217Z,3.60
2019-05-23T15:26:22.376Z,3.57
2019-05-23T15:28:39.339Z,3.30
2019-05-23T15:31:07.060Z,3.40
2019-05-23T15:33:34.160Z,3.43
2019-05-23T15:36:01.281Z,4.37
2019-05-23T15:38:28.448Z,4.30
2019-05-23T15:40:55.638Z,4.30
2019-05-23T15:43:22.724Z,3.43
2019-05-23T15:45:49.835Z,3.80
2019-05-23T15:48:16.984Z,4.00
2019-05-23T15:50:49.211Z,4.00
2019-05-23T15:53:29.334Z,3.80
2019-05-23T15:56:27.523Z,4.20
2019-05-23T15:58:53.361Z,3.03
2019-05-23T16:01:28.500Z,3.90
2019-05-23T16:04:05.152Z,3.90
2019-05-23T16:06:34.884Z,4.27
2019-05-23T16:09:01.992Z,3.63
2019-05-23T16:11:29.203Z,3.80
2019-05-23T16:13:56.309Z,4.43
2019-05-23T16:16:23.473Z,3.50
2019-05-23T16:18:50.704Z,3.37
2019-05-23T16:21:18.107Z,3.27
2019-05-23T16:23:45.427Z,3.77
2019-05-23T16:26:12.522Z,2.80
2019-05-23T16:28:39.708Z,3.90
2019-05-23T16:31:06.814Z,4.30
2019-05-23T16:33:34.084Z,3.10
2019-05-23T16:36:01.286Z,3.10
2019-05-23T16:38:28.347Z,3.23
2019-05-23T16:40:55.462Z,3.07
2019-05-23T16:43:22.565Z,3.20
2019-05-23T16:45:49.826Z,2.93
2019-05-23T16:48:16.924Z,2.50
2019-05-23T16:50:44.052Z,2.50
2019-05-23T16:53:11.113Z,2.97
2019-05-23T16:55:53.974Z,2.40
2019-05-23T16:58:46.347Z,2.27
2019-05-23T17:01:24.682Z,2.03
2019-05-23T17:04:07.724Z,2.10
2019-05-23T17:06:46.880Z,2.40
2019-05-23T17:09:35.653Z,2.70
2019-05-23T17:12:22.396Z,2.43
2019-05-23T17:14:54.602Z,2.30
2019-05-23T17:18:00.178Z,2.50
2019-05-23T17:20:20.540Z,3.30
2019-05-23T17:22:58.914Z,2.70
2019-05-23T17:25:36.215Z,2.47
2019-05-23T17:28:13.667Z,2.90
2019-05-23T17:30:46.459Z,2.60
2019-05-23T17:33:13.739Z,3.10
2019-05-23T17:35:40.957Z,3.10
2019-05-23T17:38:08.064Z,2.60
2019-05-23T17:40:35.155Z,2.53
2019-05-23T17:43:02.238Z,2.57
2019-05-23T17:45:29.817Z,2.57
2019-05-23T17:47:58.045Z,2.80
2019-05-23T17:50:25.895Z,3.07
2019-05-23T17:52:53.000Z,3.30
2019-05-23T17:55:20.180Z,2.50
2019-05-23T17:57:47.384Z,2.83
2019-05-23T18:00:18.626Z,3.13
2019-05-23T18:02:45.961Z,2.43
2019-05-23T18:05:13.645Z,2.40
2019-05-23T18:10:22.040Z,3.17
2019-05-23T18:12:49.146Z,3.03
2019-05-23T18:17:58.796Z,2.70
2019-05-23T18:23:13.344Z,3.03
2019-05-23T18:25:41.706Z,2.43
2019-05-23T18:28:49.619Z,2.20
2019-05-23T18:31:24.394Z,2.37
2019-05-23T18:33:51.469Z,2.10
2019-05-23T18:36:19.037Z,2.57
2019-05-23T18:38:46.436Z,2.50
2019-05-23T18:41:13.533Z,2.27
2019-05-23T18:43:41.237Z,2.03
2019-05-23T18:46:14.561Z,2.43
2019-05-23T18:48:41.654Z,2.07
2019-05-23T18:51:09.374Z,2.70
2019-05-23T18:53:36.674Z,2.47
2019-05-23T18:56:05.050Z,2.57
2019-05-23T18:58:32.150Z,2.47
2019-05-23T19:01:15.434Z,2.73
2019-05-23T19:03:42.769Z,2.27
2019-05-23T19:06:09.947Z,2.73
2019-05-23T19:08:37.024Z,2.60
2019-05-23T19:11:19.561Z,2.50
2019-05-23T19:13:33.161Z,3.10
2019-05-23T19:16:00.266Z,2.10
2019-05-23T19:18:27.337Z,2.57
2019-05-23T19:20:55.633Z,2.63
2019-05-23T19:23:23.817Z,3.07
2019-05-23T19:25:50.934Z,2.73
2019-05-23T19:28:18.147Z,2.63
2019-05-23T19:30:45.315Z,2.60
2019-05-23T19:33:13.194Z,2.53
2019-05-23T19:35:41.144Z,3.20
2019-05-23T19:38:08.222Z,2.77
2019-05-23T19:40:35.351Z,3.20
2019-05-23T19:43:03.431Z,2.70
2019-05-23T19:45:31.032Z,2.60
2019-05-23T19:47:58.215Z,3.37
2019-05-23T19:50:26.325Z,2.97
2019-05-23T19:52:53.406Z,2.63
2019-05-23T19:55:20.809Z,2.70
2019-05-23T19:57:48.015Z,2.97
2019-05-23T20:00:17.772Z,3.23
2019-05-23T20:02:49.195Z,2.70
2019-05-23T20:05:28.639Z,2.63
2019-05-23T20:07:55.791Z,2.80
2019-05-23T20:10:23.186Z,2.57
2019-05-23T20:12:50.349Z,3.00
2019-05-23T20:15:17.469Z,3.00
2019-05-23T20:17:44.589Z,3.10
2019-05-23T20:20:11.773Z,3.03
2019-05-23T20:22:38.854Z,3.17
2019-05-23T20:25:06.249Z,3.03
2019-05-23T20:27:33.572Z,2.67
2019-05-23T20:30:00.685Z,3.40
2019-05-23T20:32:28.021Z,3.30
2019-05-23T20:34:55.142Z,3.10
2019-05-23T20:37:24.252Z,3.67
2019-05-23T20:39:51.373Z,3.13
2019-05-23T20:42:18.885Z,3.40
2019-05-23T20:44:46.560Z,3.50
2019-05-23T20:47:13.783Z,3.83
2019-05-23T20:49:40.855Z,3.67
2019-05-23T20:52:08.590Z,4.10
2019-05-23T20:54:35.684Z,3.90
2019-05-23T20:57:02.789Z,4.40
2019-05-23T20:59:29.910Z,4.03
2019-05-23T21:01:57.096Z,4.30
2019-05-23T21:04:24.214Z,5.00
2019-05-23T21:06:51.318Z,4.70
2019-05-23T21:09:18.385Z,4.97
2019-05-23T21:11:45.535Z,5.93
2019-05-23T21:14:12.590Z,5.10
2019-05-23T21:16:39.683Z,5.17
2019-05-23T21:19:06.762Z,5.00
2019-05-23T21:21:33.842Z,4.90
2019-05-23T21:24:00.935Z,6.53
2019-05-23T21:26:27.984Z,5.90
2019-05-23T21:28:55.099Z,5.70
2019-05-23T21:31:22.640Z,5.80
2019-05-23T21:33:49.824Z,6.60
2019-05-23T21:36:16.969Z,6.30
2019-05-23T21:38:44.051Z,7.20
2019-05-23T21:41:11.117Z,7.50
2019-05-23T21:43:38.206Z,8.23
2019-05-23T21:46:05.304Z,7.97
2019-05-23T21:48:32.395Z,7.70
2019-05-23T21:50:59.616Z,7.63
2019-05-23T21:53:26.771Z,7.40
2019-05-23T21:55:53.880Z,7.60
2019-05-23T21:58:20.932Z,7.63
2019-05-23T22:01:35.655Z,7.20
2019-05-23T22:04:20.904Z,6.10
2019-05-23T22:06:55.688Z,7.57
2019-05-23T22:09:22.820Z,7.93
2019-05-23T22:11:51.814Z,7.73
2019-05-23T22:14:18.942Z,7.30
2019-05-23T22:16:46.020Z,8.03
2019-05-23T22:19:15.500Z,7.73
2019-05-23T22:21:42.621Z,7.53
2019-05-23T22:24:09.948Z,8.20
2019-05-23T22:26:37.086Z,7.97
2019-05-23T22:29:05.498Z,7.30
2019-05-23T22:31:32.753Z,7.07
2019-05-23T22:34:05.862Z,8.40
2019-05-23T22:36:32.931Z,6.87
2019-05-23T22:39:00.009Z,8.57
2019-05-23T22:41:27.116Z,8.57
2019-05-23T22:43:54.211Z,8.00
2019-05-23T22:46:22.673Z,7.40
2019-05-23T22:48:49.777Z,7.60
2019-05-23T22:51:16.836Z,7.83
2019-05-23T22:53:43.933Z,8.07
2019-05-23T22:56:11.053Z,7.57
2019-05-23T22:58:38.168Z,8.17
2019-05-23T23:01:05.442Z,7.70
2019-05-23T23:03:32.530Z,7.30
2019-05-23T23:05:59.588Z,6.90
2019-05-23T23:08:27.506Z,6.90
2019-05-23T23:10:54.594Z,7.83
2019-05-23T23:13:37.630Z,7.87
2019-05-23T23:15:52.240Z,7.57
2019-05-23T23:18:19.349Z,8.00
2019-05-23T23:20:46.375Z,8.97
2019-05-23T23:23:13.592Z,7.60
2019-05-23T23:25:42.170Z,7.70
2019-05-23T23:28:09.249Z,7.70
2019-05-23T23:30:38.329Z,8.40
2019-05-23T23:33:05.403Z,7.60
2019-05-23T23:35:32.559Z,7.20
2019-05-23T23:37:59.637Z,7.30
2019-05-23T23:40:26.722Z,8.20
2019-05-23T23:42:53.794Z,7.90
2019-05-23T23:45:39.201Z,7.33
2019-05-23T23:48:24.774Z,7.60
2019-05-23T23:51:10.322Z,6.97
2019-05-23T23:53:56.000Z,7.20
2019-05-23T23:56:41.880Z,6.53
2019-05-23T23:59:08.559Z,7.95
